Time;durP1;ratioP1;P1;durP2;ratioP2;P2;SDS_P1;SDS_P2;PMS_P1;PMS_P2;Temp;Humidity;BMP_temperature;BMP_pressure;BME280_temperature;BME280_humidity;BME280_pressure;Samples;Min_cycle;Max_cycle;Signal;HPM_P1;HPM_P2
2023/09/16 00:02:02;;;;;;;27.47;22.20;;;16.50;36.30;;;;;;5009453;28;20484;-65
2023/09/16 00:04:29;;;;;;;26.87;21.30;;;16.50;36.20;;;;;;5008419;28;20574;-65
2023/09/16 00:06:57;;;;;;;26.67;20.37;;;16.50;36.20;;;;;;5007057;28;20471;-65
2023/09/16 00:09:24;;;;;;;26.60;21.77;;;16.40;36.10;;;;;;5008945;28;20511;-65
2023/09/16 00:11:51;;;;;;;28.03;21.43;;;16.40;36.10;;;;;;5009160;28;20838;-65
2023/09/16 00:14:18;;;;;;;25.50;21.20;;;16.40;36.10;;;;;;5003621;28;20494;-64
2023/09/16 00:16:45;;;;;;;28.10;20.70;;;16.40;36.00;;;;;;5000548;28;20472;-63
2023/09/16 00:19:12;;;;;;;28.53;21.40;;;16.40;36.00;;;;;;5003231;28;20464;-65
2023/09/16 00:21:41;;;;;;;21.17;17.13;;;16.40;35.80;;;;;;5012111;28;20468;-64
2023/09/16 00:24:11;;;;;;;23.33;18.00;;;16.30;35.60;;;;;;5014919;28;20489;-65
2023/09/16 00:26:39;;;;;;;19.93;16.60;;;16.30;35.50;;;;;;5008317;28;20851;-64
2023/09/16 00:29:06;;;;;;;21.90;17.13;;;16.20;35.40;;;;;;5010033;28;20472;-64
2023/09/16 00:31:34;;;;;;;24.40;18.50;;;16.20;35.40;;;;;;5007648;28;21046;-64
2023/09/16 00:34:00;;;;;;;24.17;18.10;;;16.20;35.40;;;;;;5006290;28;20544;-64
2023/09/16 00:36:27;;;;;;;22.77;19.10;;;16.10;35.50;;;;;;5006284;28;20464;-64
2023/09/16 00:38:54;;;;;;;20.83;17.97;;;16.10;35.70;;;;;;5008611;28;20944;-64
2023/09/16 00:41:22;;;;;;;22.33;18.87;;;16.10;35.90;;;;;;5007728;28;20459;-64
2023/09/16 00:43:49;;;;;;;23.60;19.10;;;16.10;36.20;;;;;;5001860;28;20484;-64
2023/09/16 00:46:16;;;;;;;24.80;19.60;;;16.10;36.20;;;;;;5006944;28;20468;-64
2023/09/16 00:48:45;;;;;;;24.53;19.67;;;16.10;36.10;;;;;;5009486;28;20529;-66
2023/09/16 00:51:13;;;;;;;22.93;19.30;;;16.10;36.20;;;;;;5010076;28;21817;-64
2023/09/16 00:53:40;;;;;;;24.70;19.87;;;16.10;36.20;;;;;;5007629;28;21057;-64
2023/09/16 00:56:07;;;;;;;23.23;19.60;;;16.10;36.40;;;;;;5017738;28;20464;-64
2023/09/16 00:58:37;;;;;;;27.50;19.60;;;16.00;36.40;;;;;;5018262;28;20940;-64
2023/09/16 01:01:03;;;;;;;25.40;20.20;;;16.10;36.60;;;;;;5004527;28;20465;-66
2023/09/16 01:03:30;;;;;;;25.90;20.03;;;16.00;36.40;;;;;;5004276;28;20483;-65
2023/09/16 01:05:59;;;;;;;25.00;19.93;;;16.00;36.50;;;;;;5007225;28;20467;-64
2023/09/16 01:08:26;;;;;;;22.53;20.10;;;16.00;36.40;;;;;;5006734;28;20479;-66
2023/09/16 01:10:53;;;;;;;24.60;19.97;;;16.00;36.60;;;;;;5007552;28;20494;-64
2023/09/16 01:13:20;;;;;;;22.83;20.40;;;16.00;36.60;;;;;;5001173;28;20519;-65
2023/09/16 01:15:56;;;;;;;24.77;19.97;;;16.00;36.70;;;;;;5006499;28;20472;-65
2023/09/16 01:18:28;;;;;;;26.40;21.30;;;16.00;37.00;;;;;;5006427;28;20455;-64
2023/09/16 01:20:56;;;;;;;25.73;20.60;;;16.00;36.70;;;;;;5005710;28;20507;-64
2023/09/16 01:23:23;;;;;;;26.10;21.10;;;16.00;36.80;;;;;;5006188;28;20487;-65
2023/09/16 01:25:51;;;;;;;23.07;19.90;;;16.00;36.80;;;;;;5006307;28;20471;-64
2023/09/16 01:28:18;;;;;;;22.90;19.10;;;16.00;36.70;;;;;;5006976;28;20487;-65
2023/09/16 01:30:48;;;;;;;23.83;20.20;;;15.90;36.90;;;;;;5004946;28;20467;-64
2023/09/16 01:33:20;;;;;;;26.33;20.00;;;15.90;36.70;;;;;;5003719;28;20862;-64
2023/09/16 01:35:49;;;;;;;24.83;20.27;;;15.90;37.00;;;;;;5004538;28;21073;-64
2023/09/16 01:38:22;;;;;;;29.37;20.57;;;15.90;37.00;;;;;;5003772;28;20459;-64
2023/09/16 01:40:53;;;;;;;24.47;19.27;;;15.90;37.10;;;;;;5003726;28;20464;-65
2023/09/16 01:43:20;;;;;;;25.37;21.30;;;15.80;37.10;;;;;;5003816;28;20864;-66
2023/09/16 01:45:47;;;;;;;26.63;20.43;;;15.80;36.90;;;;;;5005186;28;20984;-64
2023/09/16 01:48:16;;;;;;;24.30;19.87;;;15.80;36.90;;;;;;5004644;28;20491;-64
2023/09/16 01:50:43;;;;;;;24.27;19.93;;;15.80;36.80;;;;;;5005215;28;20820;-64
2023/09/16 01:53:10;;;;;;;23.77;20.57;;;15.80;36.80;;;;;;5005778;28;20464;-64
2023/09/16 01:55:38;;;;;;;25.63;21.60;;;15.80;36.80;;;;;;5004463;28;20854;-64
2023/09/16 01:58:06;;;;;;;24.47;21.30;;;15.80;36.80;;;;;;5006671;28;20463;-64
2023/09/16 02:00:33;;;;;;;27.73;22.30;;;15.80;36.80;;;;;;5005459;28;20471;-65
2023/09/16 02:02:59;;;;;;;25.33;20.53;;;15.70;37.00;;;;;;5003483;28;20467;-64
2023/09/16 02:05:26;;;;;;;27.00;22.40;;;15.70;37.00;;;;;;5004426;28;20475;-64
2023/09/16 02:07:53;;;;;;;26.80;22.57;;;15.70;37.10;;;;;;5005103;28;20463;-64
2023/09/16 02:10:20;;;;;;;31.10;24.27;;;15.60;37.00;;;;;;5004311;28;20473;-64
2023/09/16 02:12:46;;;;;;;27.90;22.90;;;15.70;37.10;;;;;;5002092;28;20472;-64
2023/09/16 02:15:14;;;;;;;27.47;22.90;;;15.60;37.00;;;;;;5003025;28;20495;-64
2023/09/16 02:17:41;;;;;;;23.23;20.73;;;15.60;37.10;;;;;;5002772;28;20483;-64
2023/09/16 02:20:10;;;;;;;24.87;19.30;;;15.60;37.00;;;;;;5004595;28;20468;-64
2023/09/16 02:22:37;;;;;;;20.07;16.93;;;15.60;37.10;;;;;;5003603;28;20476;-64
2023/09/16 02:25:04;;;;;;;19.53;17.40;;;15.60;37.20;;;;;;5003586;28;20492;-64
2023/09/16 02:27:32;;;;;;;23.33;19.87;;;15.50;37.20;;;;;;5004624;28;20475;-64
2023/09/16 02:29:58;;;;;;;23.33;18.90;;;15.50;37.20;;;;;;5003986;28;20488;-64
2023/09/16 02:32:26;;;;;;;22.30;18.70;;;15.50;37.20;;;;;;5000248;28;20484;-64
2023/09/16 02:34:53;;;;;;;22.57;19.43;;;15.50;37.30;;;;;;5005734;28;20858;-64
2023/09/16 02:37:21;;;;;;;26.43;20.30;;;15.50;37.20;;;;;;5006314;28;20460;-64
2023/09/16 02:39:48;;;;;;;21.00;18.60;;;15.50;37.10;;;;;;5002394;28;20565;-65
2023/09/16 02:42:15;;;;;;;25.37;20.70;;;15.40;37.10;;;;;;5005975;28;20482;-64
2023/09/16 02:44:41;;;;;;;25.77;20.10;;;15.40;37.10;;;;;;5005948;28;20491;-64
2023/09/16 02:47:08;;;;;;;26.07;21.57;;;15.40;36.80;;;;;;5005581;28;20468;-65
2023/09/16 02:49:36;;;;;;;25.17;21.23;;;15.40;36.90;;;;;;5004968;28;20487;-64
2023/09/16 02:52:03;;;;;;;26.70;21.93;;;15.40;37.10;;;;;;5003514;28;20879;-64
2023/09/16 02:54:29;;;;;;;24.43;20.93;;;15.30;37.00;;;;;;5004457;28;20487;-64
2023/09/16 02:56:56;;;;;;;27.93;21.80;;;15.40;37.00;;;;;;5002725;28;20475;-64
2023/09/16 02:59:23;;;;;;;23.50;20.23;;;15.40;36.90;;;;;;5004476;28;20480;-64
2023/09/16 03:01:49;;;;;;;24.73;20.50;;;15.40;37.10;;;;;;5001693;28;20491;-65
2023/09/16 03:04:16;;;;;;;27.30;20.90;;;15.30;37.10;;;;;;5003990;28;20494;-64
2023/09/16 03:06:44;;;;;;;25.47;21.00;;;15.40;37.00;;;;;;5000768;28;20475;-65
2023/09/16 03:09:11;;;;;;;24.90;19.90;;;15.40;37.10;;;;;;5003999;28;20475;-64
2023/09/16 03:11:38;;;;;;;29.20;22.50;;;15.40;37.20;;;;;;5007369;28;20471;-64
2023/09/16 03:14:04;;;;;;;26.60;21.77;;;15.40;37.20;;;;;;5008686;28;20506;-64
2023/09/16 03:16:32;;;;;;;26.83;21.70;;;15.40;37.20;;;;;;5010894;28;20475;-64
2023/09/16 03:18:58;;;;;;;29.27;23.03;;;15.40;37.00;;;;;;5004268;28;20460;-64
2023/09/16 03:21:26;;;;;;;28.00;23.13;;;15.40;37.40;;;;;;5009931;28;20476;-64
2023/09/16 03:23:54;;;;;;;25.50;20.50;;;15.40;37.30;;;;;;5004968;28;20488;-64
2023/09/16 03:26:21;;;;;;;25.53;21.03;;;15.40;37.30;;;;;;5008538;28;20850;-64
2023/09/16 03:28:48;;;;;;;23.70;20.30;;;15.40;37.20;;;;;;5009270;28;20494;-64
2023/09/16 03:31:15;;;;;;;25.00;20.57;;;15.40;37.40;;;;;;5008965;28;20480;-64
2023/09/16 03:33:42;;;;;;;26.80;22.40;;;15.50;37.40;;;;;;5005874;28;20711;-64
2023/09/16 03:36:09;;;;;;;25.30;21.23;;;15.50;37.20;;;;;;5007477;28;20464;-64
2023/09/16 03:38:44;;;;;;;26.93;21.97;;;15.50;37.40;;;;;;5008516;28;20478;-64
2023/09/16 03:41:12;;;;;;;24.80;19.93;;;15.50;37.40;;;;;;5007907;28;20463;-64
2023/09/16 03:43:39;;;;;;;20.90;18.33;;;15.50;37.30;;;;;;5006681;28;20487;-64
2023/09/16 03:46:06;;;;;;;22.77;18.50;;;15.50;37.30;;;;;;5008882;28;20495;-64
2023/09/16 03:48:33;;;;;;;22.67;19.30;;;15.50;37.30;;;;;;5008823;28;20479;-64
2023/09/16 03:50:59;;;;;;;22.87;20.03;;;15.50;37.20;;;;;;5008522;28;20467;-64
2023/09/16 03:53:26;;;;;;;26.07;21.83;;;15.50;37.20;;;;;;5006764;28;20488;-64
2023/09/16 03:55:53;;;;;;;25.10;21.17;;;15.50;37.30;;;;;;5004731;28;20478;-64
2023/09/16 03:58:21;;;;;;;22.23;19.63;;;15.50;37.20;;;;;;5008872;28;20459;-65
2023/09/16 04:00:48;;;;;;;24.60;20.33;;;15.50;37.10;;;;;;5008119;28;20475;-64
2023/09/16 04:03:15;;;;;;;24.93;21.83;;;15.50;37.00;;;;;;5007626;28;20487;-64
2023/09/16 04:05:42;;;;;;;24.77;21.07;;;15.50;37.00;;;;;;5006985;28;20471;-64
2023/09/16 04:08:09;;;;;;;25.70;21.67;;;15.60;36.90;;;;;;5002901;28;20847;-64
2023/09/16 04:10:36;;;;;;;24.30;20.27;;;15.50;36.80;;;;;;5008499;28;20491;-64
2023/09/16 04:13:02;;;;;;;28.20;19.63;;;15.60;36.80;;;;;;5003108;28;20479;-64
2023/09/16 04:15:30;;;;;;;26.27;20.37;;;15.50;36.80;;;;;;5003043;28;20471;-65
2023/09/16 04:17:57;;;;;;;25.23;19.43;;;15.50;36.80;;;;;;5007399;28;20491;-64
2023/09/16 04:20:24;;;;;;;22.83;18.90;;;15.50;36.70;;;;;;5006322;28;20463;-65
2023/09/16 04:22:51;;;;;;;23.77;20.40;;;15.50;36.60;;;;;;5002326;28;20541;-64
2023/09/16 04:25:18;;;;;;;23.83;19.27;;;15.40;36.40;;;;;;5004220;28;20491;-65
2023/09/16 04:27:44;;;;;;;23.73;18.77;;;15.40;36.50;;;;;;5006743;28;20991;-64
2023/09/16 04:30:12;;;;;;;25.53;20.93;;;15.30;36.50;;;;;;5006274;28;20507;-65
2023/09/16 04:32:40;;;;;;;24.63;21.13;;;15.30;36.50;;;;;;5008112;28;20564;-65
2023/09/16 04:35:08;;;;;;;29.77;21.07;;;15.30;36.60;;;;;;5007974;28;20890;-64
2023/09/16 04:37:36;;;;;;;26.70;19.60;;;15.20;36.60;;;;;;5007631;28;20476;-64
2023/09/16 04:40:07;;;;;;;23.90;20.57;;;15.20;36.70;;;;;;5005629;28;21086;-64
2023/09/16 04:42:34;;;;;;;21.97;18.97;;;15.20;36.80;;;;;;5006044;28;20987;-64
2023/09/16 04:45:00;;;;;;;21.70;18.37;;;15.20;37.00;;;;;;5007563;28;20484;-64
2023/09/16 04:47:28;;;;;;;28.83;20.93;;;15.10;37.00;;;;;;5008236;28;20475;-64
2023/09/16 04:49:56;;;;;;;27.57;21.80;;;15.10;37.10;;;;;;5006735;28;20499;-64
2023/09/16 04:52:25;;;;;;;25.73;21.97;;;15.10;37.20;;;;;;5003816;28;20498;-64
2023/09/16 04:54:53;;;;;;;25.90;21.40;;;15.10;37.30;;;;;;5006294;28;20570;-64
2023/09/16 04:57:20;;;;;;;24.27;19.43;;;15.00;37.30;;;;;;5005492;28;20475;-64
2023/09/16 04:59:46;;;;;;;28.60;19.27;;;15.10;37.30;;;;;;5002917;28;20490;-64
2023/09/16 05:02:13;;;;;;;25.80;20.27;;;15.00;37.30;;;;;;5004393;28;20479;-64
2023/09/16 05:04:40;;;;;;;23.00;20.20;;;15.00;37.30;;;;;;5005357;28;20506;-64
2023/09/16 05:07:08;;;;;;;30.23;20.00;;;15.00;37.20;;;;;;5003874;28;20486;-64
2023/09/16 05:09:35;;;;;;;25.17;19.37;;;15.00;37.40;;;;;;5004914;28;20491;-64
2023/09/16 05:12:02;;;;;;;23.90;20.20;;;15.10;37.30;;;;;;5006602;28;20475;-64
2023/09/16 05:14:28;;;;;;;23.30;18.23;;;15.00;37.20;;;;;;5006432;28;20571;-64
2023/09/16 05:16:55;;;;;;;21.20;17.70;;;15.00;37.10;;;;;;5005880;28;20463;-65
2023/09/16 05:19:22;;;;;;;20.60;17.30;;;15.00;37.00;;;;;;5008779;28;20463;-64
2023/09/16 05:21:48;;;;;;;19.87;17.20;;;15.00;37.00;;;;;;5005672;28;20979;-64
2023/09/16 05:24:16;;;;;;;18.93;16.87;;;15.10;37.10;;;;;;5004414;28;20510;-64
2023/09/16 05:26:43;;;;;;;22.07;17.43;;;15.20;36.90;;;;;;5002793;28;20508;-64
2023/09/16 05:29:10;;;;;;;20.73;16.13;;;15.30;36.70;;;;;;5007339;28;20484;-64
2023/09/16 05:31:37;;;;;;;15.77;13.33;;;15.30;36.50;;;;;;5007310;28;20480;-64
2023/09/16 05:34:03;;;;;;;29.50;16.60;;;15.40;36.20;;;;;;5005442;28;20487;-64
2023/09/16 05:36:30;;;;;;;16.63;14.20;;;15.40;35.90;;;;;;4996270;28;20952;-65
2023/09/16 05:38:57;;;;;;;19.20;13.53;;;15.40;35.60;;;;;;5004208;28;20498;-64
2023/09/16 05:41:25;;;;;;;18.73;15.20;;;15.40;35.30;;;;;;5002057;28;20467;-64
2023/09/16 05:43:52;;;;;;;24.47;16.97;;;15.40;35.10;;;;;;5005068;28;20491;-64
2023/09/16 05:46:18;;;;;;;90.13;17.80;;;15.40;35.00;;;;;;5005451;28;21689;-64
2023/09/16 05:48:45;;;;;;;98.97;16.90;;;15.50;35.00;;;;;;5006588;28;20506;-64
2023/09/16 05:51:12;;;;;;;106.93;18.87;;;15.60;34.40;;;;;;5004433;28;20491;-64
2023/09/16 05:53:39;;;;;;;25.07;15.30;;;15.80;34.40;;;;;;5001336;28;20492;-64
2023/09/16 05:56:08;;;;;;;57.77;16.47;;;15.90;34.60;;;;;;5005157;28;20476;-64
2023/09/16 05:58:36;;;;;;;36.83;15.33;;;16.00;34.50;;;;;;5001258;28;20468;-64
2023/09/16 06:01:03;;;;;;;38.90;15.07;;;16.10;34.20;;;;;;5003950;28;20479;-63
2023/09/16 06:03:30;;;;;;;22.80;15.30;;;16.20;34.00;;;;;;5003855;28;20479;-64
2023/09/16 06:06:00;;;;;;;16.00;14.30;;;16.20;33.80;;;;;;5006832;28;20979;-64
2023/09/16 06:08:27;;;;;;;19.30;14.47;;;16.30;33.70;;;;;;5003201;28;20480;-66
2023/09/16 06:10:53;;;;;;;17.40;15.50;;;16.40;33.70;;;;;;5004806;28;20483;-64
2023/09/16 06:13:20;;;;;;;19.20;16.53;;;16.40;33.80;;;;;;5002977;28;20947;-65
2023/09/16 06:15:48;;;;;;;19.03;15.83;;;16.40;33.90;;;;;;5005933;28;20522;-64
2023/09/16 06:18:15;;;;;;;18.80;16.80;;;16.50;34.00;;;;;;4997539;28;20879;-64
2023/09/16 06:20:42;;;;;;;21.13;17.07;;;16.50;34.00;;;;;;5004737;28;20467;-64
2023/09/16 06:23:09;;;;;;;21.20;17.47;;;16.60;34.00;;;;;;5001503;28;20960;-65
2023/09/16 06:25:36;;;;;;;21.97;18.80;;;16.70;33.90;;;;;;5006576;28;21551;-66
2023/09/16 06:28:04;;;;;;;22.60;18.60;;;16.70;33.90;;;;;;5002408;28;20467;-67
2023/09/16 06:30:30;;;;;;;21.93;18.50;;;16.70;33.80;;;;;;5003710;28;20483;-68
2023/09/16 06:32:58;;;;;;;22.13;18.17;;;16.80;33.80;;;;;;5004351;28;20476;-67
2023/09/16 06:35:25;;;;;;;20.40;17.90;;;16.80;33.70;;;;;;4999100;28;20472;-65
2023/09/16 06:37:52;;;;;;;20.50;17.80;;;16.90;33.70;;;;;;5003077;28;21354;-66
2023/09/16 06:40:19;;;;;;;20.77;17.57;;;16.90;33.60;;;;;;5003272;28;20475;-64
2023/09/16 06:42:46;;;;;;;23.43;19.93;;;17.00;34.10;;;;;;5001023;28;20464;-64
2023/09/16 06:45:13;;;;;;;24.00;20.90;;;17.10;33.60;;;;;;5005111;28;20484;-66
2023/09/16 06:47:40;;;;;;;27.07;20.87;;;17.20;33.40;;;;;;5007461;28;20471;-65
2023/09/16 06:50:09;;;;;;;25.23;20.87;;;17.30;33.50;;;;;;5007576;28;20483;-65
2023/09/16 06:52:36;;;;;;;30.13;20.40;;;17.40;33.10;;;;;;5008770;28;20463;-69
2023/09/16 06:55:03;;;;;;;26.47;20.87;;;17.50;33.40;;;;;;4999136;28;20850;-64
2023/09/16 06:57:30;;;;;;;24.07;20.70;;;17.60;33.40;;;;;;5009453;28;20469;-64
2023/09/16 06:59:57;;;;;;;41.40;18.37;;;17.60;33.40;;;;;;5011134;28;20456;-64
2023/09/16 07:02:24;;;;;;;45.60;20.57;;;17.70;33.50;;;;;;5009091;28;20459;-64
2023/09/16 07:04:50;;;;;;;37.53;20.20;;;17.80;33.40;;;;;;5003030;28;20490;-64
2023/09/16 07:07:20;;;;;;;29.43;20.47;;;17.90;33.30;;;;;;5009665;28;20467;-64
2023/09/16 07:09:46;;;;;;;37.33;20.70;;;17.90;33.30;;;;;;5009897;28;20494;-64
2023/09/16 07:12:13;;;;;;;25.60;20.43;;;18.00;33.10;;;;;;5003247;28;20463;-64
2023/09/16 07:14:40;;;;;;;46.93;19.83;;;18.10;33.50;;;;;;5008775;28;20519;-65
2023/09/16 07:17:07;;;;;;;22.03;18.20;;;18.20;32.40;;;;;;5009967;28;20548;-67
2023/09/16 07:19:34;;;;;;;29.30;19.63;;;18.20;32.00;;;;;;5009734;28;20479;-65
2023/09/16 07:22:01;;;;;;;34.33;20.63;;;18.30;32.00;;;;;;5006409;28;20809;-65
2023/09/16 07:24:29;;;;;;;23.33;18.17;;;18.30;31.90;;;;;;5007579;28;20488;-65
2023/09/16 07:26:56;;;;;;;29.10;18.90;;;18.40;31.90;;;;;;5011519;28;20466;-65
2023/09/16 07:29:23;;;;;;;23.47;18.97;;;18.40;31.70;;;;;;5009960;28;20466;-65
2023/09/16 07:31:50;;;;;;;23.00;19.90;;;18.40;31.60;;;;;;5010225;28;20479;-65
2023/09/16 07:34:19;;;;;;;25.80;20.73;;;18.40;31.50;;;;;;5008296;28;20513;-65
2023/09/16 07:36:46;;;;;;;21.90;19.47;;;18.40;31.50;;;;;;5013079;28;20948;-66
2023/09/16 07:39:13;;;;;;;33.10;21.20;;;18.50;31.50;;;;;;5006322;28;20460;-66
2023/09/16 07:41:41;;;;;;;22.93;19.77;;;18.60;31.50;;;;;;5003920;28;21267;-65
2023/09/16 07:44:08;;;;;;;26.60;19.57;;;18.70;31.20;;;;;;5006556;28;20483;-66
2023/09/16 07:46:35;;;;;;;21.37;19.17;;;18.70;31.00;;;;;;5007734;28;20472;-67
2023/09/16 07:49:02;;;;;;;29.93;21.87;;;18.70;31.00;;;;;;5008290;28;20491;-67
2023/09/16 07:51:28;;;;;;;27.00;20.83;;;18.80;31.00;;;;;;5006057;28;20520;-64
2023/09/16 07:53:55;;;;;;;44.37;21.20;;;18.70;30.70;;;;;;5002418;28;20483;-66
2023/09/16 07:56:22;;;;;;;44.00;21.07;;;18.80;30.70;;;;;;5003659;28;20479;-66
2023/09/16 07:58:50;;;;;;;57.13;21.70;;;18.70;30.60;;;;;;5006004;28;20470;-65
2023/09/16 08:01:17;;;;;;;78.00;21.17;;;18.60;30.50;;;;;;4984059;28;20514;-65
2023/09/16 08:03:43;;;;;;;23.57;19.13;;;18.60;30.90;;;;;;5004969;28;20475;-64
2023/09/16 08:06:10;;;;;;;24.17;20.97;;;18.70;31.10;;;;;;5003731;28;20475;-65
2023/09/16 08:08:37;;;;;;;48.80;21.63;;;18.70;31.20;;;;;;5007834;28;20490;-65
2023/09/16 08:11:04;;;;;;;25.80;21.47;;;18.80;31.00;;;;;;5005796;28;20483;-65
2023/09/16 08:13:30;;;;;;;27.00;22.23;;;18.80;30.90;;;;;;5006872;28;20492;-65
2023/09/16 08:15:58;;;;;;;25.00;21.43;;;18.90;30.90;;;;;;5005120;28;20471;-65
2023/09/16 08:18:25;;;;;;;30.23;21.43;;;19.10;30.80;;;;;;5006009;28;20463;-64
2023/09/16 08:20:52;;;;;;;25.63;22.23;;;19.20;30.50;;;;;;5006293;28;20464;-64
2023/09/16 08:23:18;;;;;;;29.87;21.40;;;19.30;30.40;;;;;;5007174;28;20490;-66
2023/09/16 08:25:46;;;;;;;24.90;21.10;;;19.50;29.90;;;;;;5003131;28;20490;-66
2023/09/16 08:28:13;;;;;;;21.30;18.87;;;19.70;29.30;;;;;;5005204;28;20468;-66
2023/09/16 08:30:39;;;;;;;26.13;20.40;;;19.70;29.00;;;;;;5008538;28;20464;-65
2023/09/16 08:33:09;;;;;;;50.40;21.10;;;19.80;28.70;;;;;;5009728;28;20464;-66
2023/09/16 08:35:35;;;;;;;27.70;19.57;;;19.90;28.20;;;;;;5009003;28;20474;-66
2023/09/16 08:38:02;;;;;;;31.27;19.37;;;19.90;27.60;;;;;;5008879;28;20471;-66
2023/09/16 08:40:32;;;;;;;23.67;20.70;;;20.00;27.40;;;;;;5006755;28;20479;-66
2023/09/16 08:43:09;;;;;;;22.20;19.30;;;20.10;27.40;;;;;;5004948;28;21343;-65
2023/09/16 08:45:43;;;;;;;28.63;19.57;;;20.30;26.40;;;;;;4999095;28;20471;-64
2023/09/16 08:48:14;;;;;;;23.73;21.23;;;20.40;26.20;;;;;;5006667;28;20475;-64
2023/09/16 08:50:42;;;;;;;27.40;20.03;;;20.40;25.90;;;;;;5004455;28;20543;-65
2023/09/16 08:53:12;;;;;;;22.70;20.30;;;20.50;25.50;;;;;;5004913;28;20478;-65
2023/09/16 08:55:39;;;;;;;25.23;21.13;;;20.60;25.60;;;;;;5005253;28;20983;-68
2023/09/16 08:58:08;;;;;;;29.60;20.57;;;20.70;25.80;;;;;;5007606;28;20471;-67
2023/09/16 09:00:36;;;;;;;22.27;19.53;;;20.90;25.10;;;;;;5003848;28;20465;-66
2023/09/16 09:03:03;;;;;;;22.80;19.20;;;21.10;24.80;;;;;;5005092;28;20468;-66
2023/09/16 09:05:33;;;;;;;21.93;19.67;;;21.20;24.30;;;;;;5010175;28;20464;-66
2023/09/16 09:07:59;;;;;;;22.27;19.03;;;21.40;23.80;;;;;;5007051;28;20542;-66
2023/09/16 09:10:26;;;;;;;20.50;18.30;;;21.70;23.50;;;;;;5006219;28;21034;-66
2023/09/16 09:12:54;;;;;;;21.20;19.00;;;22.00;22.30;;;;;;5006710;28;21168;-66
2023/09/16 09:15:23;;;;;;;19.37;17.40;;;22.30;21.70;;;;;;5001009;28;20598;-66
2023/09/16 09:17:55;;;;;;;20.43;18.43;;;22.90;20.00;;;;;;5007736;28;20925;-66
2023/09/16 09:20:24;;;;;;;21.37;19.00;;;23.40;18.90;;;;;;5002448;28;20463;-68
2023/09/16 09:22:53;;;;;;;17.27;15.67;;;23.90;17.50;;;;;;5006521;28;20463;-66
2023/09/16 09:25:21;;;;;;;18.20;16.40;;;24.70;15.50;;;;;;5005674;28;20468;-66
2023/09/16 09:27:49;;;;;;;17.40;15.70;;;25.50;13.10;;;;;;5007744;28;20487;-65
2023/09/16 09:30:16;;;;;;;19.40;17.30;;;26.80;10.90;;;;;;5004309;28;20475;-65
2023/09/16 09:32:44;;;;;;;15.67;14.17;;;28.80;7.60;;;;;;5005439;28;21055;-67
2023/09/16 09:35:12;;;;;;;16.70;15.10;;;31.50;2.50;;;;;;5004097;28;20488;-67
2023/09/16 09:37:39;;;;;;;15.13;13.63;;;33.70;1.00;;;;;;5003344;28;20475;-65
2023/09/16 09:40:10;;;;;;;15.83;14.33;;;35.20;1.00;;;;;;5001945;28;20475;-67
2023/09/16 09:42:41;;;;;;;15.40;14.00;;;35.90;1.00;;;;;;5000255;28;20512;-66
2023/09/16 09:45:09;;;;;;;16.13;14.73;;;37.20;1.00;;;;;;5002960;28;20547;-66
2023/09/16 09:47:37;;;;;;;14.53;13.23;;;38.30;1.00;;;;;;5004020;28;20468;-66
2023/09/16 09:50:05;;;;;;;14.17;12.97;;;39.70;1.00;;;;;;5003157;28;20491;-67
2023/09/16 09:52:32;;;;;;;14.70;13.30;;;41.30;1.00;;;;;;4998535;28;20488;-65
2023/09/16 09:54:59;;;;;;;14.60;13.37;;;42.60;1.00;;;;;;5005212;28;20495;-67
2023/09/16 09:57:28;;;;;;;14.30;13.10;;;43.80;1.00;;;;;;4997977;28;20559;-66
2023/09/16 09:59:56;;;;;;;14.23;13.03;;;44.70;1.00;;;;;;5004373;28;20988;-66
2023/09/16 10:02:25;;;;;;;13.80;12.60;;;45.10;1.00;;;;;;4999930;28;20988;-66
2023/09/16 10:04:58;;;;;;;13.10;11.70;;;45.60;1.00;;;;;;4998003;28;20546;-65
2023/09/16 10:07:25;;;;;;;13.53;12.43;;;46.20;1.00;;;;;;5003709;28;20901;-67
2023/09/16 10:09:52;;;;;;;11.50;10.40;;;46.60;1.00;;;;;;5002466;28;20471;-67
2023/09/16 10:12:19;;;;;;;13.77;12.50;;;47.20;1.00;;;;;;5002634;28;20527;-66
2023/09/16 10:14:48;;;;;;;13.43;12.17;;;47.70;1.00;;;;;;5003096;28;20488;-66
2023/09/16 10:17:15;;;;;;;11.80;10.60;;;47.90;1.00;;;;;;5005091;28;20464;-66
2023/09/16 10:19:43;;;;;;;11.93;10.57;;;48.00;1.00;;;;;;5004228;28;20475;-66
2023/09/16 10:22:10;;;;;;;12.30;11.00;;;48.10;1.00;;;;;;5002342;28;20460;-66
2023/09/16 10:24:37;;;;;;;12.73;10.67;;;47.90;1.00;;;;;;5001856;28;20495;-66
2023/09/16 10:27:09;;;;;;;11.60;10.40;;;47.70;1.00;;;;;;5003319;28;20471;-64
2023/09/16 10:29:37;;;;;;;12.90;10.90;;;48.00;1.00;;;;;;5005773;28;21360;-66
2023/09/16 10:32:06;;;;;;;11.17;10.10;;;48.20;1.00;;;;;;4991563;28;21007;-66
2023/09/16 10:34:33;;;;;;;10.60;8.87;;;48.20;1.00;;;;;;5001992;28;20583;-66
2023/09/16 10:37:00;;;;;;;10.47;9.47;;;48.20;1.00;;;;;;5003991;28;20467;-65
2023/09/16 10:39:29;;;;;;;14.10;9.17;;;48.20;1.00;;;;;;5003623;28;20483;-67
2023/09/16 10:41:56;;;;;;;10.80;8.63;;;48.40;1.00;;;;;;5001150;28;20471;-68
2023/09/16 10:44:23;;;;;;;10.77;8.37;;;48.40;1.00;;;;;;5002725;28;20484;-68
2023/09/16 10:46:52;;;;;;;11.30;8.83;;;48.20;1.00;;;;;;5004850;28;20455;-67
2023/09/16 10:49:21;;;;;;;12.17;9.70;;;47.80;1.00;;;;;;5003947;28;20477;-67
2023/09/16 10:51:48;;;;;;;12.10;8.20;;;47.30;1.00;;;;;;5001528;28;20488;-67
2023/09/16 10:54:21;;;;;;;10.80;8.60;;;47.00;1.00;;;;;;5004393;28;20492;-66
2023/09/16 10:56:49;;;;;;;9.23;7.60;;;47.00;1.00;;;;;;5004556;28;20468;-67
2023/09/16 10:59:18;;;;;;;9.80;8.20;;;46.80;1.00;;;;;;5001958;28;20476;-66
2023/09/16 11:01:50;;;;;;;9.80;8.20;;;46.70;1.00;;;;;;5005632;28;20464;-65
2023/09/16 11:04:18;;;;;;;10.70;8.70;;;46.30;1.00;;;;;;5005643;28;20483;-65
2023/09/16 11:06:50;;;;;;;8.80;7.90;;;45.70;1.00;;;;;;5000151;28;20487;-65
2023/09/16 11:09:18;;;;;;;9.70;7.30;;;45.40;1.00;;;;;;5004430;28;20688;-65
2023/09/16 11:11:45;;;;;;;9.27;6.77;;;45.10;1.00;;;;;;5004432;28;20491;-66
2023/09/16 11:14:13;;;;;;;10.97;7.17;;;44.80;1.00;;;;;;5004996;28;20488;-65
2023/09/16 11:16:44;;;;;;;7.83;6.60;;;44.30;1.00;;;;;;5001845;28;20468;-66
2023/09/16 11:19:14;;;;;;;6.80;5.97;;;43.80;1.00;;;;;;5003778;28;20537;-67
2023/09/16 11:21:41;;;;;;;7.03;6.30;;;43.30;1.00;;;;;;5002380;28;20456;-67
2023/09/16 11:24:11;;;;;;;8.27;7.43;;;42.70;1.00;;;;;;5002652;28;20499;-67
2023/09/16 11:26:38;;;;;;;10.60;7.63;;;42.00;1.00;;;;;;5005157;28;20464;-66
2023/09/16 11:29:16;;;;;;;9.50;7.70;;;41.20;1.00;;;;;;5006030;28;20805;-65
2023/09/16 11:31:43;;;;;;;6.67;5.70;;;39.90;1.00;;;;;;5002820;28;20899;-66
2023/09/16 11:34:12;;;;;;;7.63;5.87;;;38.50;1.00;;;;;;5006710;28;20495;-66
2023/09/16 11:36:42;;;;;;;8.00;5.90;;;37.00;1.00;;;;;;4999388;28;20508;-65
2023/09/16 11:39:18;;;;;;;5.70;5.03;;;35.90;1.00;;;;;;5006515;28;20500;-65
2023/09/16 11:41:45;;;;;;;6.57;5.30;;;34.90;1.00;;;;;;5004056;28;20462;-65
2023/09/16 11:44:13;;;;;;;7.60;5.30;;;34.10;1.00;;;;;;5007289;28;20551;-63
2023/09/16 11:46:41;;;;;;;7.47;5.60;;;33.40;1.00;;;;;;5002218;28;20476;-63
2023/09/16 11:49:07;;;;;;;7.13;6.13;;;32.80;1.00;;;;;;5003586;28;20818;-66
2023/09/16 11:51:36;;;;;;;6.57;5.87;;;32.30;1.00;;;;;;5005580;28;20480;-65
2023/09/16 11:54:04;;;;;;;6.90;5.70;;;31.80;1.00;;;;;;5001946;28;20600;-64
2023/09/16 11:56:34;;;;;;;6.20;4.43;;;31.30;1.00;;;;;;5002953;28;20854;-65
2023/09/16 11:59:02;;;;;;;5.40;4.07;;;30.90;1.00;;;;;;5001074;28;21285;-64
2023/09/16 12:01:31;;;;;;;5.83;3.97;;;30.50;1.00;;;;;;5004912;28;20934;-64
2023/09/16 12:03:59;;;;;;;6.40;5.10;;;30.20;1.00;;;;;;5003136;28;20497;-64
2023/09/16 12:06:26;;;;;;;6.93;4.83;;;29.80;1.00;;;;;;5002767;28;20791;-65
2023/09/16 12:08:55;;;;;;;6.70;4.83;;;29.60;1.00;;;;;;5005479;28;20499;-64
2023/09/16 12:11:22;;;;;;;4.93;3.60;;;29.30;1.00;;;;;;5003098;28;20480;-65
2023/09/16 12:13:50;;;;;;;9.77;4.73;;;29.00;1.00;;;;;;5008866;28;20491;-65
2023/09/16 12:16:17;;;;;;;11.37;4.43;;;28.70;1.00;;;;;;5008702;23;20542;-64
2023/09/16 12:18:44;;;;;;;6.80;3.70;;;28.50;1.00;;;;;;4986369;28;21268;-64
2023/09/16 12:21:12;;;;;;;5.27;3.97;;;28.30;1.00;;;;;;4990865;28;20461;-64
2023/09/16 12:23:41;;;;;;;4.90;3.93;;;28.10;1.00;;;;;;4983040;28;20899;-63
2023/09/16 12:26:09;;;;;;;6.10;4.60;;;27.90;1.00;;;;;;4986819;28;20501;-63
2023/09/16 12:28:35;;;;;;;5.17;3.80;;;27.90;1.00;;;;;;4986983;28;20465;-64
2023/09/16 12:31:07;;;;;;;6.10;3.63;;;27.70;1.00;;;;;;4986962;28;20481;-64
2023/09/16 12:33:43;;;;;;;5.10;3.63;;;27.70;1.00;;;;;;4985408;28;20495;-64
2023/09/16 12:36:14;;;;;;;5.00;3.70;;;27.60;1.00;;;;;;4983644;28;20551;-65